Time;durP1;ratioP1;P1;durP2;ratioP2;P2;SDS_P1;SDS_P2;PMS_P1;PMS_P2;Temp;Humidity;BMP_temperature;BMP_pressure;BME280_temperature;BME280_humidity;BME280_pressure;Samples;Min_cycle;Max_cycle;Signal;HPM_P1;HPM_P2
2022/09/20 00:35:31;;;;;;;3.75;1.40;;;;;;;11.94;75.28;98449.53;6220268;23;20020;-93
2022/09/20 01:48:31;;;;;;;2.17;1.50;;;;;;;11.85;75.36;98547.41;6066381;23;20082;-94
2022/09/20 01:55:29;;;;;;;5.95;1.73;;;;;;;11.90;75.56;98545.28;6067691;23;20185;-94
2022/09/20 01:58:23;;;;;;;6.95;1.77;;;;;;;11.86;75.61;98554.53;6018365;23;20029;-92
2022/09/20 02:10:57;;;;;;;4.38;1.85;;;;;;;11.71;75.91;98559.47;6244645;22;20059;-93
2022/09/20 02:22:52;;;;;;;2.85;1.65;;;;;;;11.80;75.82;98586.75;6247026;22;20016;-93
2022/09/20 02:29:45;;;;;;;5.57;1.83;;;;;;;11.78;75.75;98594.50;6258911;22;20382;-93
2022/09/20 02:32:51;;;;;;;3.63;1.60;;;;;;;11.79;75.87;98596.13;6223752;23;20050;-92
2022/09/20 03:05:23;;;;;;;2.15;1.70;;;;;;;11.88;75.17;98650.81;6198646;22;20109;-94
2022/09/20 03:08:46;;;;;;;5.05;1.92;;;;;;;11.48;74.98;98602.06;6171243;23;20030;-91
2022/09/20 03:15:43;;;;;;;3.50;1.58;;;;;;;11.76;74.77;98667.97;6125583;23;20021;-92
2022/09/20 03:18:16;;;;;;;3.60;1.50;;;;;;;11.91;74.96;98685.75;6053510;23;20022;-90
2022/09/20 03:21:07;;;;;;;6.18;1.75;;;;;;;11.90;74.88;98693.16;6179557;23;20020;-92
2022/09/20 03:32:52;;;;;;;3.88;1.83;;;;;;;12.01;74.57;98714.66;6096772;23;20149;-92
2022/09/20 03:39:24;;;;;;;4.15;1.80;;;;;;;11.99;74.72;98718.53;6072468;23;20045;-94
2022/09/20 04:09:42;;;;;;;3.90;1.98;;;;;;;12.13;74.27;98764.81;6191931;23;20120;-89
2022/09/20 04:25:05;;;;;;;4.18;2.22;;;;;;;12.27;73.62;98796.59;6232916;23;20017;-87
2022/09/20 04:27:40;;;;;;;4.13;1.98;;;;;;;12.20;73.70;98786.19;6237531;23;20016;-91
2022/09/20 04:30:19;;;;;;;8.38;1.95;;;;;;;12.28;73.99;98789.97;6187614;23;20012;-88
2022/09/20 04:32:57;;;;;;;2.55;1.95;;;;;;;12.30;73.56;98798.69;6235326;23;20020;-91
2022/09/20 04:38:20;;;;;;;3.38;1.60;;;;;;;12.30;73.11;98804.94;6185957;23;20016;-92
2022/09/20 04:41:06;;;;;;;2.35;1.77;;;;;;;12.37;73.39;98802.47;6169663;23;20473;-90
2022/09/20 04:44:03;;;;;;;7.57;2.30;;;;;;;12.50;72.93;98813.47;6144914;23;20047;-92
2022/09/20 04:50:41;;;;;;;5.15;1.85;;;;;;;12.64;71.99;98823.00;6263030;22;20036;-91
2022/09/20 05:06:17;;;;;;;2.80;2.08;;;;;;;12.67;72.00;98851.69;6249455;22;20511;-91
2022/09/20 05:29:31;;;;;;;3.70;1.90;;;;;;;12.84;71.68;98872.63;6221807;23;20493;-93
2022/09/20 06:26:49;;;;;;;;;;;;;;;13.15;70.51;98949.78;6231486;22;19962;-88
2022/09/20 07:04:33;;;;;;;6.63;2.97;;;;;;;13.95;66.02;99002.69;6174328;23;20045;-90
2022/09/20 07:11:54;;;;;;;7.22;2.60;;;;;;;13.76;66.01;99014.25;6169635;23;20044;-94
2022/09/20 07:14:27;;;;;;;2.85;2.10;;;;;;;13.80;65.82;99017.91;6168339;23;20016;-94
2022/09/20 07:18:10;;;;;;;5.68;2.00;;;;;;;13.79;65.16;99011.59;6193198;22;20004;-92
2022/09/20 07:20:38;;;;;;;2.13;1.77;;;;;;;13.78;65.31;99018.25;6210922;22;20482;-93
2022/09/20 07:26:29;;;;;;;8.20;2.17;;;;;;;13.77;65.63;99021.31;6224147;23;20485;-93
2022/09/20 07:29:01;;;;;;;5.88;2.03;;;;;;;13.86;65.23;99027.53;6147963;23;20099;-95
2022/09/20 07:39:41;;;;;;;4.00;2.08;;;;;;;13.68;65.04;99021.44;6047462;23;20355;-94
2022/09/20 07:42:07;;;;;;;4.38;2.17;;;;;;;13.77;64.70;99041.34;6045447;23;20094;-90
2022/09/20 07:50:01;;;;;;;4.15;2.15;;;;;;;14.09;63.96;99044.38;6051367;23;20054;-96
2022/09/20 08:37:00;;;;;;;3.20;2.15;;;;;;;14.31;64.10;99068.69;6259996;22;20028;-92
2022/09/20 09:03:27;;;;;;;3.20;2.00;;;;;;;14.47;60.59;99002.78;6097042;23;20029;-88
2022/09/20 09:06:00;;;;;;;6.22;1.73;;;;;;;14.99;60.49;99072.75;6124832;23;20018;-86
2022/09/20 09:08:32;;;;;;;4.80;1.92;;;;;;;15.17;61.73;99076.03;6100357;23;20345;-91
2022/09/20 09:11:08;;;;;;;5.43;2.25;;;;;;;15.38;60.83;99078.59;6162537;23;20012;-90
2022/09/20 09:39:40;;;;;;;5.43;2.13;;;;;;;15.16;58.72;99101.94;6245852;23;20024;-89
2022/09/20 09:42:28;;;;;;;3.10;1.80;;;;;;;14.95;58.62;99055.31;6193638;23;20020;-91
2022/09/20 09:49:36;;;;;;;5.60;1.90;;;;;;;15.48;57.41;99133.97;6245394;23;20410;-91
2022/09/20 09:52:42;;;;;;;3.30;2.08;;;;;;;15.21;57.89;99093.44;6254240;23;20020;-83
2022/09/20 09:55:18;;;;;;;;;;;;;;;15.36;57.44;99136.75;6194068;23;20048;-84
2022/09/20 09:58:11;;;;;;;6.60;1.90;;;;;;;15.32;57.80;99140.56;6223227;23;19978;-87
2022/09/20 10:00:45;;;;;;;3.42;1.90;;;;;;;15.28;58.77;99145.97;6169600;23;20016;-89
2022/09/20 10:03:30;;;;;;;3.95;1.85;;;;;;;15.12;58.36;99129.38;6169537;23;20462;-92
2022/09/20 10:06:10;;;;;;;3.05;1.85;;;;;;;15.27;58.18;99130.59;6171264;23;20038;-90
2022/09/20 10:09:00;;;;;;;7.50;2.20;;;;;;;15.44;58.50;99127.56;6174770;23;20019;-91
2022/09/20 10:11:45;;;;;;;4.30;2.10;;;;;;;15.78;56.95;99143.88;6172083;23;20023;-90
2022/09/20 10:14:23;;;;;;;4.32;1.85;;;;;;;15.91;56.18;99120.59;6222408;23;20335;-89
2022/09/20 10:16:59;;;;;;;5.68;2.13;;;;;;;16.13;56.13;99139.31;6168090;23;20024;-90
2022/09/20 10:19:47;;;;;;;5.13;1.83;;;;;;;16.19;55.00;99148.94;6217448;23;20019;-88
2022/09/20 10:22:34;;;;;;;7.60;2.28;;;;;;;16.21;55.95;99143.84;6244481;23;20039;-84
2022/09/20 10:25:18;;;;;;;3.15;1.63;;;;;;;16.32;54.80;99144.13;6245014;23;20020;-84
2022/09/20 10:27:56;;;;;;;2.50;1.95;;;;;;;16.27;55.56;99124.28;6195900;23;20027;-90
2022/09/20 10:30:35;;;;;;;3.30;2.05;;;;;;;16.56;56.97;99147.88;6245717;23;20020;-90
2022/09/20 10:33:26;;;;;;;3.97;2.13;;;;;;;16.43;54.69;99134.16;6169392;23;20023;-86
2022/09/20 10:36:13;;;;;;;2.72;1.77;;;;;;;16.32;54.38;99157.91;6169510;23;20146;-89
2022/09/20 10:38:57;;;;;;;3.42;1.80;;;;;;;16.05;54.66;99167.84;6174624;23;20055;-88
2022/09/20 10:44:47;;;;;;;4.88;2.50;;;;;;;15.64;56.31;99158.81;6134638;23;20017;-87
2022/09/20 10:47:22;;;;;;;5.03;2.10;;;;;;;15.65;57.43;99193.50;6113660;23;20080;-89
2022/09/20 10:50:22;;;;;;;5.15;2.30;;;;;;;15.52;57.37;99162.41;6120769;23;20055;-84
2022/09/20 10:53:18;;;;;;;8.93;2.92;;;;;;;15.91;58.50;99178.50;6192013;23;20017;-87
2022/09/20 10:56:28;;;;;;;4.40;2.35;;;;;;;16.08;57.52;99194.72;6194756;23;20028;-90
2022/09/20 11:03:32;;;;;;;7.15;2.80;;;;;;;15.92;57.81;99202.94;6227298;23;20019;-87
2022/09/20 11:06:37;;;;;;;7.00;2.40;;;;;;;15.89;58.52;99192.63;6231091;23;20020;-92
2022/09/20 11:26:33;;;;;;;6.43;2.50;;;;;;;16.15;55.29;99174.78;6075631;23;20033;-89
2022/09/20 11:29:25;;;;;;;7.57;2.75;;;;;;;16.23;56.57;99250.28;6057683;23;20457;-88
2022/09/20 11:32:21;;;;;;;7.22;2.70;;;;;;;16.10;56.60;99255.84;6084254;23;20018;-89
2022/09/20 11:51:15;;;;;;;3.22;2.35;;;;;;;15.70;59.34;99261.38;6019877;23;20038;-87
2022/09/20 12:45:06;;;;;;;7.40;2.85;;;;;;;15.36;58.64;99293.75;6069323;23;20070;-89
2022/09/20 12:48:50;;;;;;;8.38;2.95;;;;;;;15.35;58.75;99296.88;6072292;23;20086;-90
2022/09/20 12:59:49;;;;;;;12.57;2.70;;;;;;;15.44;58.82;99292.03;5926108;24;20407;-89
2022/09/20 13:30:51;;;;;;;10.45;2.95;;;;;;;15.77;57.51;99311.19;6245249;23;20026;-90
2022/09/20 14:00:18;;;;;;;8.25;4.28;;;;;;;15.20;59.63;99299.16;6244858;23;20354;-88
2022/09/20 14:02:47;;;;;;;7.80;3.53;;;;;;;15.37;58.91;99324.88;6218426;23;20362;-88
2022/09/20 14:06:11;;;;;;;9.75;3.83;;;;;;;15.40;58.41;99327.75;6243089;23;20481;-91
2022/09/20 14:09:27;;;;;;;6.68;3.13;;;;;;;15.51;58.23;99328.88;6217750;23;20016;-89
2022/09/20 14:13:01;;;;;;;11.65;3.00;;;;;;;15.58;58.60;99328.28;6243066;23;20098;-87
2022/09/20 14:20:14;;;;;;;8.23;4.45;;;;;;;15.58;58.79;99327.50;6244735;23;20023;-90
2022/09/20 14:35:18;;;;;;;5.10;3.30;;;;;;;14.80;59.05;99288.81;6246034;23;20074;-89
2022/09/20 14:42:43;;;;;;;5.63;2.95;;;;;;;14.74;59.95;99309.44;6246928;23;20030;-89
2022/09/20 14:45:26;;;;;;;6.10;3.50;;;;;;;14.90;59.59;99361.88;6245438;22;20086;-89
2022/09/20 14:52:23;;;;;;;5.18;3.20;;;;;;;14.75;60.31;99368.03;6243801;23;20095;-89
2022/09/20 14:55:20;;;;;;;11.55;4.10;;;;;;;14.58;61.35;99347.00;6247529;23;20051;-93
2022/09/20 15:04:24;;;;;;;9.88;3.20;;;;;;;14.37;61.67;99377.25;6208904;23;20021;-89
2022/09/20 15:06:52;;;;;;;6.95;3.25;;;;;;;14.18;62.20;99352.97;6189496;23;20351;-92
2022/09/20 15:12:14;;;;;;;9.45;3.40;;;;;;;13.89;62.77;99336.56;6247281;22;20032;-87
2022/09/20 15:23:17;;;;;;;9.73;3.72;;;;;;;13.67;63.70;99352.19;6218144;23;20532;-92
2022/09/20 16:05:25;;;;;;;14.70;5.20;;;;;;;13.09;66.67;99438.84;6265747;22;20106;-91
2022/09/20 16:07:51;;;;;;;10.57;5.70;;;;;;;13.03;67.25;99435.47;6249651;22;20024;-92
2022/09/20 16:10:17;;;;;;;10.65;5.13;;;;;;;13.03;67.63;99438.19;6197751;23;20016;-89
2022/09/20 16:12:44;;;;;;;11.47;4.60;;;;;;;12.91;67.37;99438.88;6198347;23;20354;-91
2022/09/20 16:15:10;;;;;;;15.10;5.32;;;;;;;12.91;67.85;99443.53;6196602;23;20270;-92
2022/09/20 16:20:22;;;;;;;10.80;5.20;;;;;;;12.79;68.19;99448.91;6226790;23;20027;-93
2022/09/20 16:22:48;;;;;;;13.90;6.57;;;;;;;12.80;68.36;99459.53;6195976;23;20052;-93
2022/09/20 16:25:15;;;;;;;12.85;6.55;;;;;;;12.73;68.16;99451.00;6195568;23;20092;-87
2022/09/20 16:27:42;;;;;;;;;;;;;;;12.68;68.68;99451.16;6198100;23;20012;-91
2022/09/20 16:30:14;;;;;;;9.98;5.55;;;;;;;12.66;68.78;99446.00;6197707;23;19931;-90
2022/09/20 16:32:41;;;;;;;9.23;5.18;;;;;;;12.61;68.68;99439.84;6197810;23;20016;-92
2022/09/20 16:43:02;;;;;;;16.40;6.17;;;;;;;12.52;69.43;99445.38;6247035;23;20016;-89
2022/09/20 16:46:21;;;;;;;16.35;6.10;;;;;;;12.50;69.66;99450.34;6221567;23;20274;-90
2022/09/20 16:48:52;;;;;;;18.00;6.55;;;;;;;12.50;69.74;99455.84;6224274;23;20019;-91
2022/09/20 16:51:23;;;;;;;17.70;7.00;;;;;;;12.50;69.55;99452.28;6225694;23;20034;-89
2022/09/20 16:53:54;;;;;;;17.75;7.28;;;;;;;12.43;69.51;99441.81;6228362;22;20135;-87
2022/09/20 16:56:54;;;;;;;14.13;6.88;;;;;;;12.39;69.39;99446.31;6239995;22;20035;-87
2022/09/20 17:07:33;;;;;;;18.42;8.13;;;;;;;11.97;70.50;99411.13;6265102;23;20030;-89
2022/09/20 17:11:01;;;;;;;16.85;7.40;;;;;;;12.28;70.67;99464.19;6255922;22;20020;-91
2022/09/20 17:13:53;;;;;;;15.45;7.10;;;;;;;12.23;71.12;99467.91;6245915;23;20038;-88
2022/09/20 17:16:26;;;;;;;11.35;6.88;;;;;;;12.17;71.01;99475.47;6245479;23;20051;-90
2022/09/20 17:19:37;;;;;;;15.07;7.43;;;;;;;12.12;71.21;99478.38;6253940;22;20016;-84
2022/09/20 17:23:38;;;;;;;13.63;6.63;;;;;;;11.83;71.13;99434.28;6138554;23;20009;-86
2022/09/20 17:26:45;;;;;;;16.13;7.72;;;;;;;11.60;71.57;99408.91;6119602;23;20018;-87
2022/09/20 17:29:16;;;;;;;21.42;8.80;;;;;;;12.04;71.68;99481.09;6143171;23;19998;-92
2022/09/20 17:31:58;;;;;;;20.17;9.25;;;;;;;12.08;71.51;99488.34;6120465;23;20030;-86
2022/09/20 17:37:31;;;;;;;20.92;10.05;;;;;;;12.08;71.55;99485.59;6240291;23;20042;-94
2022/09/20 18:09:56;;;;;;;32.38;12.68;;;;;;;11.60;72.43;99464.47;6255584;22;20044;-91
2022/09/20 18:16:43;;;;;;;21.27;9.93;;;;;;;11.60;72.54;99461.75;6254705;23;20046;-93
2022/09/20 18:36:17;;;;;;;28.73;11.02;;;;;;;11.70;71.75;99505.28;6249054;23;20362;-92
2022/09/20 18:38:44;;;;;;;27.67;11.23;;;;;;;11.62;71.80;99508.78;6251330;23;20101;-89
2022/09/20 18:41:13;;;;;;;30.53;12.37;;;;;;;11.48;71.82;99508.84;6245789;23;20020;-89
2022/09/20 18:43:47;;;;;;;28.98;12.77;;;;;;;11.40;72.14;99517.84;6221514;23;20592;-89
2022/09/20 18:46:18;;;;;;;30.65;13.18;;;;;;;11.30;72.45;99507.16;6243305;23;20020;-84
2022/09/20 18:48:45;;;;;;;35.60;13.52;;;;;;;11.18;73.04;99509.66;6245957;23;20023;-89
2022/09/20 18:51:17;;;;;;;31.88;12.77;;;;;;;11.03;73.16;99495.25;6256582;23;20016;-87
2022/09/20 18:53:44;;;;;;;34.50;12.13;;;;;;;10.69;73.20;99454.75;6250739;23;20023;-85
2022/09/20 18:56:37;;;;;;;28.95;12.60;;;;;;;11.08;73.24;99515.38;6227769;23;20080;-87
2022/09/20 18:59:13;;;;;;;46.50;13.82;;;;;;;11.01;73.34;99516.63;6221963;23;20009;-90
2022/09/20 19:02:17;;;;;;;32.67;13.13;;;;;;;11.00;73.61;99527.88;6188514;23;20038;-88
2022/09/20 19:12:20;;;;;;;46.08;15.90;;;;;;;11.04;74.06;99521.47;6197495;23;20051;-90
2022/09/20 19:23:04;;;;;;;40.55;15.82;;;;;;;10.69;73.06;99531.31;6245652;23;20158;-90
2022/09/20 19:25:44;;;;;;;35.25;15.05;;;;;;;10.68;73.08;99526.97;6193644;23;20035;-87
2022/09/20 19:32:23;;;;;;;36.15;15.80;;;;;;;10.47;73.35;99502.03;6253303;23;20043;-89
2022/09/20 19:35:00;;;;;;;43.33;15.85;;;;;;;10.59;72.94;99528.81;6248189;23;20012;-90
2022/09/20 19:37:55;;;;;;;53.13;17.48;;;;;;;10.49;73.00;99529.03;6248838;23;20020;-87
2022/09/20 19:41:09;;;;;;;47.00;16.50;;;;;;;10.46;72.92;99530.50;6242942;23;20082;-88
2022/09/20 19:47:14;;;;;;;;;;;;;;;10.12;73.42;99552.75;6247280;23;20370;-85
2022/09/20 19:50:26;;;;;;;59.97;26.38;;;;;;;10.10;74.32;99546.78;6194545;23;19919;-87
2022/09/20 19:53:01;;;;;;;65.90;27.83;;;;;;;9.86;75.27;99506.81;6224063;23;20027;-88
2022/09/20 19:59:27;;;;;;;83.25;32.10;;;;;;;10.21;74.44;99561.03;6045504;23;20033;-87
2022/09/20 20:01:57;;;;;;;72.68;29.20;;;;;;;10.19;74.45;99563.25;6068702;23;20022;-85
2022/09/20 20:04:24;;;;;;;73.30;29.58;;;;;;;10.11;74.60;99567.53;6044661;23;20014;-87
2022/09/20 20:07:21;;;;;;;96.00;30.42;;;;;;;9.96;75.06;99544.03;6045001;23;20560;-88
2022/09/20 20:10:12;;;;;;;73.68;25.90;;;;;;;10.07;74.94;99564.59;6068422;23;20015;-88
2022/09/20 20:16:08;;;;;;;61.45;21.30;;;;;;;10.08;76.51;99562.66;6092390;23;20022;-90
2022/09/20 20:19:00;;;;;;;112.88;34.05;;;;;;;10.09;76.27;99565.06;6044703;23;20049;-89
2022/09/20 20:31:16;;;;;;;62.25;22.88;;;;;;;10.21;75.99;99561.84;6245076;22;20027;-90
2022/09/20 20:34:07;;;;;;;67.43;21.58;;;;;;;10.23;76.11;99556.06;6250966;23;20027;-88
2022/09/20 20:36:34;;;;;;;51.85;18.92;;;;;;;10.21;76.34;99555.59;6254129;23;20024;-88
2022/09/20 20:43:55;;;;;;;74.47;21.60;;;;;;;10.26;75.43;99552.75;6246195;23;20042;-90
2022/09/20 20:55:46;;;;;;;84.43;31.95;;;;;;;9.98;74.86;99555.47;6245916;22;20028;-86
2022/09/20 20:58:12;;;;;;;64.53;24.67;;;;;;;9.94;75.01;99553.66;6219307;23;20023;-90
2022/09/20 21:04:08;;;;;;;53.33;20.02;;;;;;;9.78;76.79;99534.03;6124548;23;20025;-86
2022/09/20 21:06:37;;;;;;;65.85;20.58;;;;;;;9.98;77.06;99571.84;6123926;23;20026;-87
2022/09/20 21:09:04;;;;;;;51.70;19.88;;;;;;;9.99;77.23;99573.47;6050490;23;20138;-84
2022/09/20 21:11:37;;;;;;;65.32;22.35;;;;;;;10.00;76.68;99566.91;6051064;23;20021;-85
2022/09/20 21:14:06;;;;;;;64.05;22.27;;;;;;;9.82;76.09;99546.75;6074336;23;20021;-91
2022/09/20 21:21:51;;;;;;;54.50;20.35;;;;;;;9.91;75.10;99566.00;6122793;23;20058;-90
2022/09/20 21:32:43;;;;;;;82.07;26.00;;;;;;;9.22;75.61;99499.56;6123167;23;20022;-91
2022/09/20 21:35:10;;;;;;;81.30;25.70;;;;;;;9.63;75.76;99563.25;6098407;23;20368;-91
2022/09/20 21:37:36;;;;;;;68.00;24.90;;;;;;;9.46;76.33;99538.41;6123001;23;20106;-92
2022/09/20 21:40:04;;;;;;;70.65;28.25;;;;;;;9.57;76.25;99563.59;6153970;23;20065;-87
2022/09/20 21:42:30;;;;;;;98.63;27.30;;;;;;;9.61;76.89;99562.72;6168974;23;20066;-91
2022/09/20 21:44:56;;;;;;;70.40;25.80;;;;;;;9.63;77.19;99557.78;6245057;23;20016;-88
2022/09/20 21:47:22;;;;;;;54.35;22.85;;;;;;;9.45;76.90;99536.00;6168697;23;20216;-91
2022/09/20 21:49:48;;;;;;;68.55;23.50;;;;;;;9.45;76.89;99541.47;6218517;23;20470;-91
2022/09/20 21:52:15;;;;;;;57.90;23.13;;;;;;;9.49;76.79;99556.13;6193313;23;20020;-91
2022/09/20 21:54:44;;;;;;;66.05;25.77;;;;;;;9.49;76.29;99561.56;6168584;23;20472;-91
2022/09/20 21:57:12;;;;;;;64.25;25.27;;;;;;;9.55;76.33;99572.09;6168898;23;20077;-91
2022/09/20 21:59:38;;;;;;;59.25;24.15;;;;;;;9.16;76.46;99513.28;6245723;23;20098;-91
2022/09/20 22:02:04;;;;;;;79.93;25.20;;;;;;;9.41;76.58;99566.63;6193545;23;20427;-86
2022/09/20 22:04:33;;;;;;;68.43;25.02;;;;;;;9.32;75.92;99551.22;6245318;23;20074;-88
2022/09/20 22:07:03;;;;;;;73.68;26.30;;;;;;;9.44;75.55;99567.94;6245447;23;20016;-91
2022/09/20 22:09:30;;;;;;;56.17;23.70;;;;;;;9.38;75.66;99569.94;6245033;23;20073;-91
2022/09/20 22:11:56;;;;;;;66.82;24.52;;;;;;;9.35;76.40;99573.25;6168602;23;20020;-91
2022/09/20 22:14:22;;;;;;;74.07;25.40;;;;;;;9.15;77.00;99552.59;6168985;23;20019;-91
2022/09/20 22:16:50;;;;;;;74.53;23.65;;;;;;;9.11;77.53;99532.47;6244838;23;20074;-91
2022/09/20 22:19:17;;;;;;;59.15;22.73;;;;;;;9.38;77.65;99580.84;6217366;23;20016;-90
2022/09/20 22:21:46;;;;;;;67.13;23.85;;;;;;;9.41;77.21;99579.44;6168649;23;20347;-91
2022/09/20 22:24:14;;;;;;;62.72;23.15;;;;;;;9.33;77.17;99561.81;6244891;23;20135;-88
2022/09/20 22:26:43;;;;;;;66.45;23.38;;;;;;;9.31;77.52;99564.06;6227267;23;20034;-86
2022/09/20 22:29:09;;;;;;;55.95;22.70;;;;;;;9.29;77.84;99579.09;6218311;23;20004;-88
2022/09/20 22:31:43;;;;;;;69.28;23.95;;;;;;;9.21;78.34;99568.88;6197962;22;20004;-88
2022/09/20 22:34:12;;;;;;;60.58;23.25;;;;;;;8.96;78.33;99532.72;6197906;23;20042;-89
2022/09/20 22:36:49;;;;;;;54.33;23.67;;;;;;;9.21;78.52;99587.97;6188781;23;20028;-87
2022/09/20 22:39:16;;;;;;;61.10;24.83;;;;;;;9.20;78.38;99581.69;6203934;23;20020;-90
2022/09/20 22:41:46;;;;;;;69.15;31.08;;;;;;;9.27;78.53;99584.03;6231317;23;20561;-90
2022/09/20 22:44:12;;;;;;;87.88;35.55;;;;;;;9.32;78.12;99573.03;6235423;23;20099;-86
2022/09/20 22:46:39;;;;;;;87.65;33.53;;;;;;;9.25;77.65;99559.78;6172375;23;20016;-85
2022/09/20 22:49:27;;;;;;;92.83;40.73;;;;;;;9.37;77.22;99581.97;6245080;23;20016;-87
2022/09/20 22:58:45;;;;;;;96.47;43.55;;;;;;;9.24;76.41;99573.72;6244794;23;20139;-90
2022/09/20 23:01:20;;;;;;;107.57;42.40;;;;;;;9.18;76.98;99571.06;6245134;23;20095;-91
2022/09/20 23:04:06;;;;;;;98.40;40.17;;;;;;;9.13;77.31;99562.16;6171313;23;20044;-90
2022/09/20 23:06:40;;;;;;;93.35;38.53;;;;;;;9.18;77.00;99570.28;6220913;23;20083;-87
2022/09/20 23:09:09;;;;;;;92.57;36.75;;;;;;;9.21;76.33;99575.13;6170889;23;20447;-91
2022/09/20 23:11:36;;;;;;;82.78;37.35;;;;;;;9.24;76.19;99574.53;6246621;23;20062;-90
2022/09/20 23:14:04;;;;;;;94.53;37.30;;;;;;;9.23;75.61;99577.56;6247004;23;20043;-91
2022/09/20 23:16:33;;;;;;;96.38;37.85;;;;;;;9.12;75.07;99583.16;6195504;23;20016;-91
2022/09/20 23:19:00;;;;;;;97.95;36.83;;;;;;;8.83;75.39;99558.00;6195699;23;20020;-88
2022/09/20 23:21:35;;;;;;;99.57;36.92;;;;;;;8.70;75.65;99582.13;6221282;23;20047;-90
2022/09/20 23:24:12;;;;;;;118.88;37.75;;;;;;;8.80;76.08;99589.38;6247059;23;20020;-90
2022/09/20 23:26:40;;;;;;;94.25;33.03;;;;;;;8.81;77.32;99596.47;6247087;23;20026;-90
2022/09/20 23:29:12;;;;;;;87.63;32.90;;;;;;;8.57;78.30;99557.53;6169007;23;20020;-90
2022/09/20 23:31:39;;;;;;;84.05;32.20;;;;;;;8.62;78.60;99563.75;6170112;23;20074;-90
2022/09/20 23:34:06;;;;;;;89.07;32.42;;;;;;;8.86;78.94;99598.28;6219791;23;20043;-92
2022/09/20 23:36:38;;;;;;;83.15;31.02;;;;;;;8.73;78.00;99563.59;6219949;23;20024;-91
2022/09/20 23:39:06;;;;;;;84.85;30.08;;;;;;;8.93;77.53;99596.00;6246310;23;20138;-90
2022/09/20 23:42:22;;;;;;;90.30;31.95;;;;;;;8.99;77.60;99594.81;6219321;23;20538;-91
2022/09/20 23:44:48;;;;;;;79.05;28.50;;;;;;;9.01;77.50;99603.53;6218387;22;20012;-90
2022/09/20 23:47:25;;;;;;;67.40;27.00;;;;;;;8.87;77.22;99581.66;6164955;23;20532;-90
2022/09/20 23:49:51;;;;;;;77.25;28.92;;;;;;;8.86;77.27;99584.66;6162814;23;20107;-90
2022/09/20 23:52:18;;;;;;;98.60;31.50;;;;;;;8.91;77.00;99595.50;6189782;23;20454;-90
2022/09/20 23:54:44;;;;;;;95.68;31.25;;;;;;;8.78;77.32;99599.78;6164974;23;20017;-85
2022/09/20 23:57:10;;;;;;;92.28;32.60;;;;;;;8.77;77.48;99597.31;6140271;23;20020;-90
2022/09/20 23:59:36;;;;;;;92.73;35.13;;;;;;;8.76;78.44;99595.72;6140188;23;20510;-89
